Time;durP1;ratioP1;P1;durP2;ratioP2;P2;SDS_P1;SDS_P2;PMS_P1;PMS_P2;Temp;Humidity;BMP_temperature;BMP_pressure;BME280_temperature;BME280_humidity;BME280_pressure;Samples;Min_cycle;Max_cycle;Signal;HPM_P1;HPM_P2
2022/05/29 00:02:04;;;;;;;3.33;1.30;;;19.60;57.40;;;;;;4973767;28;20417;-66
2022/05/29 00:04:33;;;;;;;2.50;1.10;;;19.60;57.40;;;;;;4956912;28;20466;-66
2022/05/29 00:07:02;;;;;;;2.77;1.57;;;19.60;57.50;;;;;;4972570;28;20979;-66
2022/05/29 00:09:41;;;;;;;8.83;1.57;;;19.60;57.50;;;;;;4953428;29;20970;-66
2022/05/29 00:12:11;;;;;;;2.53;1.40;;;19.60;57.60;;;;;;4947387;29;20435;-67
2022/05/29 00:14:38;;;;;;;2.00;1.27;;;19.50;57.60;;;;;;4934226;29;21060;-67
2022/05/29 00:17:07;;;;;;;2.77;1.10;;;19.50;57.70;;;;;;4938893;29;20456;-66
2022/05/29 00:19:38;;;;;;;2.90;1.37;;;19.50;57.70;;;;;;4939357;29;20830;-66
2022/05/29 00:22:08;;;;;;;2.00;1.23;;;19.50;57.70;;;;;;4938078;29;20826;-67
2022/05/29 00:24:41;;;;;;;2.10;1.10;;;19.50;57.80;;;;;;4938151;29;20436;-67
2022/05/29 00:27:07;;;;;;;2.90;1.30;;;19.40;57.80;;;;;;4941839;29;20459;-66
2022/05/29 00:29:35;;;;;;;2.83;1.27;;;19.40;57.90;;;;;;4973037;28;21155;-66
2022/05/29 00:32:05;;;;;;;2.27;1.43;;;19.40;58.00;;;;;;4957317;29;20420;-66
2022/05/29 00:34:31;;;;;;;4.23;1.60;;;19.40;58.00;;;;;;4958181;28;20444;-67
2022/05/29 00:36:58;;;;;;;2.00;1.00;;;19.40;58.00;;;;;;4970664;28;20537;-66
2022/05/29 00:39:25;;;;;;;2.63;1.20;;;19.40;58.10;;;;;;4938815;29;20520;-66
2022/05/29 00:41:56;;;;;;;5.47;1.67;;;19.40;58.20;;;;;;4972124;28;20529;-67
2022/05/29 00:44:28;;;;;;;5.13;1.30;;;19.40;58.20;;;;;;4957968;28;20447;-67
2022/05/29 00:47:13;;;;;;;1.57;1.30;;;19.30;58.10;;;;;;4972367;28;20476;-67
2022/05/29 00:49:45;;;;;;;1.87;1.40;;;19.30;58.20;;;;;;4957876;28;20497;-66
2022/05/29 00:52:18;;;;;;;4.00;1.20;;;19.30;58.30;;;;;;4957960;28;20420;-66
2022/05/29 00:54:53;;;;;;;4.17;1.20;;;19.30;58.30;;;;;;4956928;29;20416;-67
2022/05/29 00:57:43;;;;;;;2.73;1.27;;;19.30;58.30;;;;;;4972651;28;20979;-67
2022/05/29 01:00:17;;;;;;;1.70;1.10;;;19.30;58.40;;;;;;4945625;29;20475;-66
2022/05/29 01:02:45;;;;;;;2.30;1.30;;;19.20;58.40;;;;;;4957624;28;20968;-67
2022/05/29 01:05:16;;;;;;;2.43;1.10;;;19.20;58.40;;;;;;4957620;28;20409;-67
2022/05/29 01:07:45;;;;;;;3.73;1.47;;;19.20;58.40;;;;;;4965226;28;20428;-67
2022/05/29 01:10:14;;;;;;;4.13;1.20;;;19.20;58.50;;;;;;4939144;29;20988;-66
2022/05/29 01:13:04;;;;;;;2.60;1.50;;;19.20;58.50;;;;;;5063373;22;20538;-68
2022/05/29 01:15:33;;;;;;;1.67;1.17;;;19.20;58.50;;;;;;4997928;28;20417;-69
2022/05/29 01:18:17;;;;;;;2.53;1.20;;;19.20;58.50;;;;;;5012226;28;20884;-69
2022/05/29 01:21:14;;;;;;;1.70;1.13;;;19.10;58.50;;;;;;5008462;28;20973;-69
2022/05/29 01:24:01;;;;;;;4.03;1.50;;;19.10;58.60;;;;;;4994865;28;20397;-69
2022/05/29 01:26:42;;;;;;;2.47;1.30;;;19.10;58.60;;;;;;5002352;28;20466;-69
2022/05/29 01:29:51;;;;;;;2.60;1.30;;;19.10;58.70;;;;;;4994852;28;20469;-69
2022/05/29 01:32:49;;;;;;;4.00;1.30;;;19.10;58.70;;;;;;4975556;28;20437;-69
2022/05/29 01:35:37;;;;;;;5.20;1.63;;;19.10;58.80;;;;;;4973412;28;20444;-69
2022/05/29 01:38:29;;;;;;;2.70;1.40;;;19.00;58.70;;;;;;4983222;28;20426;-69
2022/05/29 01:41:37;;;;;;;1.97;1.43;;;19.00;58.80;;;;;;5003771;28;20450;-69
2022/05/29 01:44:15;;;;;;;2.67;1.30;;;19.00;58.80;;;;;;4956791;28;20818;-70
2022/05/29 01:46:45;;;;;;;3.50;1.50;;;18.90;58.80;;;;;;5003559;28;20530;-69
2022/05/29 01:49:13;;;;;;;2.77;1.50;;;19.00;58.90;;;;;;4993499;28;20506;-69
2022/05/29 01:51:54;;;;;;;2.37;1.37;;;18.90;58.90;;;;;;5006964;28;20543;-69
2022/05/29 01:54:48;;;;;;;2.50;1.37;;;18.90;58.90;;;;;;5014280;28;20458;-69
2022/05/29 01:57:19;;;;;;;3.57;1.67;;;18.90;59.00;;;;;;5001787;28;20425;-69
2022/05/29 01:59:52;;;;;;;3.33;1.70;;;18.90;59.00;;;;;;5013193;28;20984;-69
2022/05/29 02:02:25;;;;;;;4.33;1.57;;;18.90;59.00;;;;;;4995228;28;20436;-69
2022/05/29 02:04:56;;;;;;;1.80;1.37;;;18.90;59.00;;;;;;5009726;28;20782;-69
2022/05/29 02:10:37;;;;;;;3.80;2.00;;;18.80;59.00;;;;;;4989959;28;20464;-69
2022/05/29 02:13:30;;;;;;;3.10;1.40;;;18.80;59.10;;;;;;5005086;28;20443;-69
2022/05/29 02:16:13;;;;;;;3.23;1.40;;;18.80;59.10;;;;;;5000057;28;20554;-69
2022/05/29 02:19:00;;;;;;;3.27;1.67;;;18.80;59.20;;;;;;5010571;28;20929;-69
2022/05/29 02:21:48;;;;;;;4.13;1.70;;;18.80;59.20;;;;;;4980998;28;20889;-69
2022/05/29 02:24:20;;;;;;;3.30;1.50;;;18.70;59.10;;;;;;4992901;28;20408;-69
2022/05/29 02:27:13;;;;;;;2.30;1.73;;;18.70;59.20;;;;;;5007131;28;20458;-69
2022/05/29 02:29:42;;;;;;;2.40;1.50;;;18.70;59.20;;;;;;4992979;28;20445;-69
2022/05/29 02:32:24;;;;;;;2.47;1.70;;;18.70;59.30;;;;;;5013183;28;20416;-68
2022/05/29 02:34:52;;;;;;;1.87;1.50;;;18.70;59.30;;;;;;5012846;28;20423;-69
2022/05/29 02:37:40;;;;;;;2.77;1.83;;;18.70;59.30;;;;;;4999611;28;20462;-68
2022/05/29 02:40:31;;;;;;;3.93;1.57;;;18.60;59.30;;;;;;5010669;28;20541;-69
2022/05/29 02:43:23;;;;;;;3.50;1.67;;;18.60;59.30;;;;;;4992506;28;20838;-69
2022/05/29 02:46:28;;;;;;;3.40;1.70;;;18.60;59.40;;;;;;4979519;28;20475;-69
2022/05/29 02:49:04;;;;;;;2.57;1.60;;;18.60;59.40;;;;;;4961202;28;20441;-69
2022/05/29 02:51:41;;;;;;;3.07;1.50;;;18.50;59.40;;;;;;4998971;28;20475;-69
2022/05/29 02:54:11;;;;;;;5.47;1.80;;;18.50;59.40;;;;;;5012207;28;20500;-69
2022/05/29 02:56:37;;;;;;;2.77;1.80;;;18.50;59.40;;;;;;4999891;28;20452;-69
2022/05/29 02:59:03;;;;;;;2.60;1.80;;;18.50;59.50;;;;;;5012129;28;20833;-69
2022/05/29 03:01:36;;;;;;;5.20;1.67;;;18.50;59.60;;;;;;5013437;28;20491;-69
2022/05/29 03:04:19;;;;;;;3.47;1.90;;;18.50;59.60;;;;;;4974524;28;20529;-69
2022/05/29 03:06:52;;;;;;;4.93;2.17;;;18.50;59.70;;;;;;4991353;28;20453;-69
2022/05/29 03:09:18;;;;;;;4.07;1.60;;;18.50;59.70;;;;;;4979410;28;20451;-69
2022/05/29 03:11:47;;;;;;;5.07;1.57;;;18.50;59.70;;;;;;5002268;28;20456;-69
2022/05/29 03:14:24;;;;;;;2.80;1.50;;;18.40;59.60;;;;;;4975705;28;21309;-69
2022/05/29 03:17:11;;;;;;;3.93;2.10;;;18.40;59.70;;;;;;4958051;28;20417;-69
2022/05/29 03:19:42;;;;;;;6.43;1.90;;;18.40;59.70;;;;;;4991811;28;20443;-69
2022/05/29 03:22:17;;;;;;;2.30;1.50;;;18.40;59.70;;;;;;4993848;28;20422;-69
2022/05/29 03:25:17;;;;;;;4.13;2.00;;;18.40;59.80;;;;;;4976031;28;20461;-69
2022/05/29 03:27:48;;;;;;;3.47;1.50;;;18.40;59.80;;;;;;4994780;28;20538;-69
2022/05/29 03:30:22;;;;;;;2.57;1.50;;;18.40;59.90;;;;;;4998718;28;20452;-69
2022/05/29 03:32:50;;;;;;;2.30;1.20;;;18.30;59.90;;;;;;4983112;28;20764;-69
2022/05/29 03:35:32;;;;;;;2.87;1.70;;;18.30;59.90;;;;;;5010991;28;20420;-69
2022/05/29 03:38:07;;;;;;;3.30;1.93;;;18.30;59.90;;;;;;5009809;28;20420;-69
2022/05/29 03:40:35;;;;;;;2.90;1.80;;;18.30;60.00;;;;;;4994370;28;20448;-70
2022/05/29 03:43:02;;;;;;;3.87;1.80;;;18.30;60.00;;;;;;5003027;28;20448;-69
2022/05/29 03:45:34;;;;;;;2.77;1.30;;;18.30;60.10;;;;;;4975735;28;20566;-69
2022/05/29 03:48:02;;;;;;;2.47;1.60;;;18.30;60.10;;;;;;5000718;28;20959;-69
2022/05/29 03:50:29;;;;;;;2.80;1.63;;;18.20;60.10;;;;;;4995213;28;20448;-69
2022/05/29 03:52:55;;;;;;;3.17;1.53;;;18.20;60.20;;;;;;4998109;28;20436;-68
2022/05/29 03:55:28;;;;;;;3.60;1.60;;;18.20;60.20;;;;;;5011405;28;20482;-69
2022/05/29 03:57:55;;;;;;;1.87;1.50;;;18.20;60.20;;;;;;5005429;28;20448;-69
2022/05/29 04:00:23;;;;;;;4.17;1.70;;;18.20;60.30;;;;;;5005146;28;20451;-69
2022/05/29 04:02:49;;;;;;;3.13;1.60;;;18.20;61.10;;;;;;5011769;28;20459;-69
2022/05/29 04:05:21;;;;;;;2.63;2.20;;;18.20;60.40;;;;;;4977162;28;20821;-69
2022/05/29 04:13:20;;;;;;;3.03;1.60;;;18.10;60.60;;;;;;4994611;28;20941;-69
2022/05/29 04:15:46;;;;;;;3.30;1.57;;;18.10;60.70;;;;;;4977186;28;20428;-69
2022/05/29 04:18:16;;;;;;;3.77;1.60;;;18.10;60.70;;;;;;5005601;28;20455;-69
2022/05/29 04:20:46;;;;;;;3.10;1.53;;;18.10;60.80;;;;;;4994271;28;20460;-69
2022/05/29 04:23:12;;;;;;;3.10;1.30;;;18.10;60.90;;;;;;4987540;28;20859;-69
2022/05/29 04:25:38;;;;;;;1.87;1.40;;;18.10;60.90;;;;;;4994565;28;20468;-69
2022/05/29 04:28:07;;;;;;;3.03;1.33;;;18.10;61.00;;;;;;4983024;28;20897;-69
2022/05/29 04:30:34;;;;;;;3.30;1.50;;;18.00;60.90;;;;;;5007575;28;20887;-69
2022/05/29 04:33:02;;;;;;;2.73;1.53;;;18.00;61.00;;;;;;5000029;28;20418;-71
2022/05/29 04:35:34;;;;;;;2.23;1.60;;;18.00;61.10;;;;;;4974513;28;20423;-69
2022/05/29 04:38:05;;;;;;;3.03;1.60;;;18.00;61.10;;;;;;5008526;28;20450;-69
2022/05/29 04:40:36;;;;;;;3.10;1.30;;;18.00;61.20;;;;;;4979247;28;20986;-69
2022/05/29 04:43:02;;;;;;;3.27;1.70;;;18.00;61.30;;;;;;4999988;28;20414;-69
2022/05/29 04:45:31;;;;;;;5.47;1.50;;;18.00;61.40;;;;;;5002838;28;20791;-69
2022/05/29 04:47:59;;;;;;;3.13;1.40;;;18.00;61.40;;;;;;4990905;28;20738;-69
2022/05/29 04:50:25;;;;;;;3.40;1.50;;;17.90;61.30;;;;;;5003966;28;20530;-69
2022/05/29 04:52:51;;;;;;;2.97;1.33;;;17.90;61.40;;;;;;5011659;28;20813;-69
2022/05/29 04:55:18;;;;;;;2.40;1.50;;;17.90;61.50;;;;;;4982063;28;20420;-69
2022/05/29 04:57:45;;;;;;;5.73;2.23;;;17.90;61.60;;;;;;4990780;28;20446;-69
2022/05/29 05:00:11;;;;;;;5.87;1.53;;;17.90;61.60;;;;;;4985501;28;20446;-70
2022/05/29 05:02:37;;;;;;;1.67;1.20;;;17.90;61.70;;;;;;5013979;28;20471;-69
2022/05/29 05:05:06;;;;;;;2.83;1.70;;;17.90;61.80;;;;;;5000610;28;20417;-69
2022/05/29 05:07:32;;;;;;;2.73;1.80;;;17.90;61.90;;;;;;5000248;28;20461;-69
2022/05/29 05:09:58;;;;;;;3.87;1.53;;;17.90;62.00;;;;;;5026202;28;20455;-69
2022/05/29 05:12:28;;;;;;;2.13;1.33;;;17.90;62.20;;;;;;5013019;28;20957;-69
2022/05/29 05:14:57;;;;;;;2.27;1.50;;;17.80;62.30;;;;;;4991153;28;20178;-70
2022/05/29 05:17:23;;;;;;;3.80;1.57;;;17.90;62.40;;;;;;4974976;28;20423;-69
2022/05/29 05:19:54;;;;;;;2.57;1.50;;;17.90;62.50;;;;;;5002208;28;20452;-69
2022/05/29 05:22:22;;;;;;;3.90;1.77;;;17.80;62.50;;;;;;5000575;28;20509;-69
2022/05/29 05:24:51;;;;;;;3.93;1.90;;;17.80;62.50;;;;;;4978975;28;20835;-69
2022/05/29 05:27:19;;;;;;;3.20;1.60;;;17.80;62.80;;;;;;4983461;28;20511;-69
2022/05/29 05:29:45;;;;;;;3.03;1.60;;;17.80;63.00;;;;;;5000584;28;20882;-69
2022/05/29 05:32:13;;;;;;;2.83;1.33;;;17.80;63.00;;;;;;5002919;28;20427;-69
2022/05/29 05:34:41;;;;;;;2.73;1.63;;;17.80;63.00;;;;;;5012300;28;20471;-69
2022/05/29 05:37:10;;;;;;;2.60;1.67;;;17.80;63.10;;;;;;4998699;28;20481;-70
2022/05/29 05:39:39;;;;;;;2.33;1.67;;;17.70;63.10;;;;;;4998242;28;20553;-69
2022/05/29 05:42:08;;;;;;;4.33;1.43;;;17.70;63.30;;;;;;5009044;28;20458;-69
2022/05/29 05:44:34;;;;;;;2.50;1.30;;;17.70;63.30;;;;;;5008040;28;20424;-69
2022/05/29 05:46:59;;;;;;;4.13;1.47;;;17.70;63.40;;;;;;5009140;28;20559;-69
2022/05/29 05:49:25;;;;;;;2.27;1.40;;;17.70;63.50;;;;;;5002557;28;20453;-69
2022/05/29 05:51:59;;;;;;;3.20;1.40;;;17.70;63.70;;;;;;4990884;28;20482;-69
2022/05/29 05:54:28;;;;;;;2.97;1.50;;;17.70;63.80;;;;;;4997569;28;21001;-69
2022/05/29 05:56:59;;;;;;;2.70;1.73;;;17.70;64.00;;;;;;5009752;28;21030;-69
2022/05/29 05:59:27;;;;;;;3.27;1.53;;;17.70;64.20;;;;;;5007968;28;20463;-69
2022/05/29 06:01:58;;;;;;;2.33;1.23;;;17.70;64.30;;;;;;5009759;28;20410;-69
2022/05/29 06:04:24;;;;;;;2.97;1.77;;;17.70;64.30;;;;;;5001549;28;20451;-69
2022/05/29 06:06:50;;;;;;;4.87;1.70;;;17.70;64.50;;;;;;4976726;28;20662;-70
2022/05/29 06:09:17;;;;;;;4.13;1.80;;;17.70;64.70;;;;;;5007392;28;20517;-69
2022/05/29 06:11:43;;;;;;;2.20;1.50;;;17.70;65.00;;;;;;5009881;28;20547;-69
2022/05/29 06:14:11;;;;;;;3.53;1.53;;;17.70;65.10;;;;;;5009831;28;20415;-70
2022/05/29 06:16:42;;;;;;;3.70;1.50;;;17.70;65.10;;;;;;5009779;28;20501;-69
2022/05/29 06:19:12;;;;;;;2.03;1.10;;;17.70;65.30;;;;;;4997436;28;21066;-70
2022/05/29 06:21:38;;;;;;;2.40;1.50;;;17.60;65.30;;;;;;5010438;28;20415;-70
2022/05/29 06:24:05;;;;;;;3.20;1.70;;;17.60;65.30;;;;;;4990424;28;20477;-69
2022/05/29 06:26:32;;;;;;;3.80;1.60;;;17.60;65.40;;;;;;4999712;28;20463;-69
2022/05/29 06:28:58;;;;;;;2.50;1.60;;;17.60;65.50;;;;;;5007719;28;20789;-69
2022/05/29 06:31:24;;;;;;;2.83;1.80;;;17.60;65.70;;;;;;5010025;28;20430;-69
2022/05/29 06:33:53;;;;;;;3.20;1.60;;;17.60;65.70;;;;;;4991686;28;20235;-69
2022/05/29 06:36:23;;;;;;;2.90;1.70;;;17.60;65.80;;;;;;4973412;28;21044;-69
2022/05/29 06:38:51;;;;;;;2.43;1.40;;;17.60;65.80;;;;;;4991359;28;20403;-69
2022/05/29 06:41:20;;;;;;;1.97;1.40;;;17.60;65.70;;;;;;5001621;28;20471;-69
2022/05/29 06:43:51;;;;;;;3.73;1.80;;;17.60;66.00;;;;;;4991685;28;20417;-69
2022/05/29 06:46:18;;;;;;;4.23;1.70;;;17.60;66.20;;;;;;5010499;28;20502;-69
2022/05/29 06:48:46;;;;;;;3.73;1.67;;;17.60;66.50;;;;;;4991905;28;20426;-69
2022/05/29 06:51:24;;;;;;;3.50;1.47;;;17.60;66.50;;;;;;4991240;28;20439;-69
2022/05/29 06:53:57;;;;;;;3.53;1.60;;;17.60;66.50;;;;;;4991215;28;20468;-69
2022/05/29 06:56:25;;;;;;;3.83;1.83;;;17.60;66.50;;;;;;4973097;28;20451;-69
2022/05/29 06:58:54;;;;;;;3.57;1.47;;;17.60;66.60;;;;;;4977010;28;20571;-69
2022/05/29 07:07:01;;;;;;;3.10;1.50;;;17.50;66.90;;;;;;4993897;28;20471;-69
2022/05/29 07:09:40;;;;;;;3.00;2.03;;;17.50;66.90;;;;;;5011494;28;20557;-69
2022/05/29 07:12:13;;;;;;;4.07;1.80;;;17.50;66.90;;;;;;4999439;28;20454;-68
2022/05/29 07:14:50;;;;;;;5.00;2.00;;;17.50;66.90;;;;;;4972900;28;20432;-69
2022/05/29 07:17:16;;;;;;;3.10;1.80;;;17.50;67.10;;;;;;4996044;28;20471;-69
2022/05/29 07:19:42;;;;;;;3.03;2.10;;;17.50;67.20;;;;;;4994874;28;20471;-69
2022/05/29 07:22:09;;;;;;;3.80;2.03;;;17.50;67.30;;;;;;4975922;28;20853;-69
2022/05/29 07:24:36;;;;;;;3.33;2.00;;;17.50;67.30;;;;;;5001961;28;20462;-68
2022/05/29 07:27:06;;;;;;;3.63;2.03;;;17.50;67.40;;;;;;5028018;28;20445;-69
2022/05/29 07:29:32;;;;;;;2.73;2.10;;;17.50;67.40;;;;;;5009925;28;20554;-69
2022/05/29 07:32:00;;;;;;;3.20;1.97;;;17.50;67.70;;;;;;5012739;28;20492;-68
2022/05/29 07:34:30;;;;;;;3.90;2.20;;;17.50;67.80;;;;;;5000931;28;20435;-70
2022/05/29 07:37:10;;;;;;;5.20;2.40;;;17.50;67.70;;;;;;4998669;28;20424;-69
2022/05/29 07:39:43;;;;;;;1.97;1.67;;;17.50;67.80;;;;;;5006045;28;20873;-69
2022/05/29 07:44:55;;;;;;;4.23;2.23;;;17.50;67.90;;;;;;4998788;28;20448;-69
2022/05/29 07:47:30;;;;;;;4.23;2.30;;;17.50;68.00;;;;;;5000765;28;20466;-69
2022/05/29 07:50:03;;;;;;;4.30;2.33;;;17.50;68.10;;;;;;5011191;28;20470;-69
2022/05/29 07:52:31;;;;;;;5.60;2.50;;;17.50;68.30;;;;;;5001112;28;20464;-69
2022/05/29 07:54:59;;;;;;;2.30;2.10;;;17.50;68.30;;;;;;4992641;28;20797;-74
2022/05/29 07:57:28;;;;;;;2.37;2.17;;;17.50;68.40;;;;;;4975968;28;20409;-73
2022/05/29 07:59:55;;;;;;;2.37;1.97;;;17.50;68.40;;;;;;4999983;28;20580;-75
2022/05/29 08:02:20;;;;;;;5.50;2.60;;;17.50;68.50;;;;;;4989533;28;20458;-72
2022/05/29 08:04:49;;;;;;;7.43;2.67;;;17.50;68.60;;;;;;4992453;28;20408;-71
2022/05/29 08:07:19;;;;;;;4.20;2.17;;;17.50;68.60;;;;;;4996915;28;20465;-73
2022/05/29 08:09:48;;;;;;;4.03;2.43;;;17.50;68.60;;;;;;5011104;28;20459;-72
2022/05/29 08:12:18;;;;;;;3.20;2.20;;;17.50;68.70;;;;;;5009364;28;20462;-73
2022/05/29 08:14:46;;;;;;;5.23;2.43;;;17.50;68.80;;;;;;4976296;28;20418;-73
2022/05/29 08:17:12;;;;;;;24.27;16.90;;;17.50;68.80;;;;;;4992120;28;20422;-73
2022/05/29 08:19:38;;;;;;;22.13;15.53;;;17.40;74.00;;;;;;5010448;28;20458;-72
2022/05/29 08:22:05;;;;;;;12.20;6.60;;;17.30;74.90;;;;;;4995580;28;20438;-72
2022/05/29 08:30:37;;;;;;;10.87;4.87;;;16.30;86.60;;;;;;5012988;28;20929;-72
2022/05/29 08:33:13;;;;;;;8.50;5.00;;;16.30;90.00;;;;;;5003534;28;20776;-73
2022/05/29 08:35:44;;;;;;;9.03;5.43;;;16.00;88.10;;;;;;4991935;28;20429;-72
2022/05/29 08:38:12;;;;;;;11.57;7.27;;;15.80;90.20;;;;;;4996829;28;20514;-71
2022/05/29 08:40:52;;;;;;;11.23;6.73;;;15.70;90.30;;;;;;4996005;28;20527;-76
2022/05/29 08:43:24;;;;;;;19.10;12.93;;;15.60;90.30;;;;;;4996123;28;20439;-71
2022/05/29 08:45:53;;;;;;;10.23;6.60;;;15.50;90.10;;;;;;4997169;28;20838;-71
2022/05/29 08:48:23;;;;;;;14.10;9.93;;;15.40;90.00;;;;;;4999370;28;20569;-70
2022/05/29 08:51:03;;;;;;;13.23;9.60;;;15.20;90.50;;;;;;4999439;28;20444;-70
2022/05/29 08:53:50;;;;;;;15.40;6.57;;;15.20;92.10;;;;;;5015558;28;20444;-70
2022/05/29 08:56:38;;;;;;;13.67;5.20;;;15.20;93.10;;;;;;4999345;28;20455;-70
2022/05/29 08:59:34;;;;;;;3.90;2.63;;;15.10;93.80;;;;;;5015389;28;20463;-73
2022/05/29 09:02:15;;;;;;;3.30;2.47;;;14.90;94.30;;;;;;5015535;28;20399;-73
2022/05/29 09:04:50;;;;;;;9.00;2.93;;;14.70;95.60;;;;;;5016466;28;20795;-72
2022/05/29 09:07:19;;;;;;;3.27;2.20;;;14.50;96.60;;;;;;5016466;28;20455;-71
2022/05/29 09:10:04;;;;;;;2.90;2.23;;;14.30;96.50;;;;;;5015383;28;20451;-71
2022/05/29 09:12:40;;;;;;;4.00;2.27;;;14.20;97.80;;;;;;5016335;28;20435;-72
2022/05/29 09:15:12;;;;;;;3.40;2.10;;;14.20;98.40;;;;;;5015188;28;20471;-71
2022/05/29 09:18:12;;;;;;;3.27;2.10;;;14.00;97.90;;;;;;5016459;28;20396;-72
2022/05/29 09:20:44;;;;;;;4.30;2.33;;;13.90;99.10;;;;;;5030944;22;20530;-74
2022/05/29 09:23:20;;;;;;;5.53;2.40;;;14.00;99.10;;;;;;5031463;28;20472;-74
2022/05/29 09:25:46;;;;;;;4.30;2.87;;;14.00;99.40;;;;;;5016085;28;20445;-72
2022/05/29 09:28:23;;;;;;;7.73;3.80;;;14.10;99.90;;;;;;5016170;28;20409;-73
2022/05/29 09:31:01;;;;;;;7.00;2.93;;;14.30;97.50;;;;;;5015297;28;20944;-71
2022/05/29 09:33:30;;;;;;;9.23;3.80;;;14.10;97.60;;;;;;5014872;28;20459;-71
2022/05/29 09:35:56;;;;;;;8.87;4.70;;;14.20;99.90;;;;;;5014547;28;20427;-73
2022/05/29 09:38:35;;;;;;;6.63;3.40;;;14.10;97.00;;;;;;5014931;28;20449;-72
2022/05/29 09:41:21;;;;;;;7.63;4.13;;;14.00;97.90;;;;;;5014202;28;20530;-70
2022/05/29 09:44:15;;;;;;;8.10;4.03;;;14.10;99.30;;;;;;5015396;28;20431;-71
2022/05/29 09:46:44;;;;;;;4.73;3.13;;;14.10;98.60;;;;;;5013826;28;20439;-71
2022/05/29 09:49:42;;;;;;;8.67;4.47;;;14.10;99.90;;;;;;5013207;28;20419;-72
2022/05/29 09:52:23;;;;;;;6.20;3.20;;;14.10;99.90;;;;;;5014221;28;20465;-72
2022/05/29 09:55:03;;;;;;;4.40;2.40;;;13.90;99.90;;;;;;5014753;28;20496;-72
2022/05/29 09:57:41;;;;;;;5.87;2.73;;;13.80;99.90;;;;;;5014132;28;20833;-72
2022/05/29 10:00:13;;;;;;;6.33;3.10;;;13.90;99.90;;;;;;4981640;28;20453;-72
2022/05/29 10:02:45;;;;;;;5.80;3.40;;;13.90;99.90;;;;;;5015444;28;20436;-72
2022/05/29 10:05:35;;;;;;;5.70;3.80;;;14.00;99.90;;;;;;5014236;28;20424;-72
2022/05/29 10:08:28;;;;;;;8.53;3.13;;;14.10;99.90;;;;;;5013204;28;20450;-74
2022/05/29 10:11:15;;;;;;;9.50;3.17;;;14.20;99.90;;;;;;5013512;28;20475;-73
2022/05/29 10:13:42;;;;;;;4.40;2.63;;;14.30;99.90;;;;;;5013167;28;20440;-75
2022/05/29 10:16:12;;;;;;;6.60;3.20;;;14.40;99.90;;;;;;5013339;28;20486;-75
2022/05/29 10:18:41;;;;;;;8.00;3.03;;;14.60;99.90;;;;;;4997693;28;20905;-79
2022/05/29 10:21:15;;;;;;;4.10;2.33;;;14.80;99.90;;;;;;5014161;28;20468;-76
2022/05/29 10:23:49;;;;;;;6.87;2.27;;;14.90;99.90;;;;;;4998087;28;20935;-77
2022/05/29 10:26:21;;;;;;;5.47;3.00;;;15.10;99.90;;;;;;5013632;28;20467;-75
2022/05/29 10:28:48;;;;;;;5.20;2.00;;;15.30;99.90;;;;;;5030293;28;20418;-74
2022/05/29 10:31:25;;;;;;;5.70;2.30;;;15.40;99.20;;;;;;5014838;28;20479;-75
2022/05/29 10:34:08;;;;;;;5.20;2.20;;;15.50;98.60;;;;;;4997507;28;20441;-74
2022/05/29 10:36:40;;;;;;;3.73;2.07;;;15.70;97.90;;;;;;5014604;28;20816;-75
2022/05/29 10:39:11;;;;;;;4.27;2.13;;;15.80;97.40;;;;;;4996935;28;20428;-75
2022/05/29 10:41:42;;;;;;;4.40;2.00;;;15.80;96.80;;;;;;5014250;28;20418;-76
2022/05/29 10:44:16;;;;;;;3.20;1.90;;;16.00;96.40;;;;;;5013051;28;20461;-76
2022/05/29 10:46:52;;;;;;;2.77;1.90;;;16.00;96.00;;;;;;5013727;28;20542;-75
2022/05/29 10:49:38;;;;;;;6.50;1.90;;;16.10;95.70;;;;;;5029733;28;20822;-75
2022/05/29 10:52:27;;;;;;;2.50;1.97;;;16.20;95.30;;;;;;5011404;28;21103;-73
2022/05/29 10:54:56;;;;;;;5.20;2.17;;;16.30;94.90;;;;;;4996368;28;20526;-73
2022/05/29 10:58:00;;;;;;;2.70;1.83;;;16.30;94.60;;;;;;5011853;28;20477;-75
2022/05/29 11:00:32;;;;;;;2.87;2.00;;;16.40;94.40;;;;;;5013564;28;20452;-77
2022/05/29 11:03:20;;;;;;;3.53;2.30;;;16.40;94.10;;;;;;5014769;28;20420;-76
2022/05/29 11:06:41;;;;;;;4.47;2.20;;;16.50;94.00;;;;;;5011930;28;20457;-72
2022/05/29 11:09:42;;;;;;;5.60;2.57;;;16.50;93.70;;;;;;4983141;28;20458;-72
2022/05/29 11:12:29;;;;;;;2.87;2.20;;;16.60;93.60;;;;;;4992752;28;20499;-75
2022/05/29 11:15:03;;;;;;;5.10;2.57;;;16.60;93.30;;;;;;4977027;28;20394;-74
2022/05/29 11:17:48;;;;;;;4.70;2.60;;;16.70;93.20;;;;;;5009748;28;20431;-75
2022/05/29 11:20:50;;;;;;;2.80;2.03;;;16.70;93.00;;;;;;4993038;28;20804;-76
2022/05/29 11:23:41;;;;;;;5.40;2.40;;;16.70;93.00;;;;;;5010913;28;20445;-76
2022/05/29 11:26:24;;;;;;;3.10;2.03;;;16.80;92.80;;;;;;4996398;28;20998;-75
2022/05/29 11:29:04;;;;;;;3.73;2.20;;;16.80;92.60;;;;;;5011173;28;20443;-75
2022/05/29 11:31:42;;;;;;;3.20;2.10;;;16.90;92.60;;;;;;4994833;28;20427;-75
2022/05/29 11:34:26;;;;;;;3.43;1.80;;;16.90;92.50;;;;;;5012332;28;20412;-75
2022/05/29 11:37:32;;;;;;;3.70;2.20;;;16.90;92.40;;;;;;4995614;28;20441;-75
2022/05/29 11:40:27;;;;;;;4.73;1.97;;;17.00;92.40;;;;;;5011287;28;20521;-75
2022/05/29 11:43:01;;;;;;;3.90;1.93;;;17.00;92.20;;;;;;5012463;28;20759;-75
2022/05/29 11:51:31;;;;;;;2.53;1.90;;;17.10;91.80;;;;;;5003721;28;20449;-75
2022/05/29 11:54:28;;;;;;;4.33;1.80;;;17.10;91.60;;;;;;4991952;28;20412;-75
2022/05/29 11:57:12;;;;;;;2.90;1.90;;;17.10;91.30;;;;;;4968579;28;20470;-75
2022/05/29 11:59:48;;;;;;;5.97;2.97;;;17.20;91.30;;;;;;4976458;28;20462;-75
2022/05/29 12:02:38;;;;;;;6.97;4.00;;;17.20;91.30;;;;;;4992673;28;20411;-75
2022/05/29 12:05:15;;;;;;;6.63;2.67;;;17.20;91.30;;;;;;4992471;28;20483;-75
2022/05/29 12:08:09;;;;;;;5.23;2.77;;;17.20;91.20;;;;;;5008725;28;20450;-75
2022/05/29 12:10:51;;;;;;;3.57;2.47;;;17.20;91.10;;;;;;5008984;28;20463;-75
2022/05/29 12:13:22;;;;;;;3.90;2.47;;;17.30;90.90;;;;;;5031509;28;20437;-75
2022/05/29 12:16:00;;;;;;;5.27;2.43;;;17.30;90.70;;;;;;5031731;28;20406;-75
2022/05/29 12:18:38;;;;;;;3.77;2.47;;;17.30;90.50;;;;;;5031664;28;20447;-75
2022/05/29 12:21:05;;;;;;;2.93;2.37;;;17.30;90.30;;;;;;5031599;28;20825;-75
2022/05/29 12:23:43;;;;;;;6.67;2.53;;;17.40;90.20;;;;;;5031037;28;20452;-75
2022/05/29 12:26:32;;;;;;;4.13;2.20;;;17.40;89.80;;;;;;4975680;28;20469;-74
2022/05/29 12:29:35;;;;;;;4.00;2.20;;;17.40;89.50;;;;;;5008876;28;20420;-74
2022/05/29 12:32:25;;;;;;;3.50;1.60;;;17.40;89.20;;;;;;4972195;28;20426;-75
2022/05/29 12:34:54;;;;;;;2.40;2.00;;;17.40;88.90;;;;;;5013174;28;20439;-75
2022/05/29 12:37:46;;;;;;;3.13;1.53;;;17.40;88.70;;;;;;5010472;28;20418;-75
2022/05/29 12:40:32;;;;;;;3.77;1.80;;;17.50;88.60;;;;;;5009399;28;20438;-75
2022/05/29 12:43:32;;;;;;;5.90;1.87;;;17.50;88.00;;;;;;5009678;28;20404;-75
2022/05/29 12:46:17;;;;;;;1.80;1.20;;;17.50;87.60;;;;;;5011210;28;20437;-75
2022/05/29 12:49:15;;;;;;;2.40;1.27;;;17.40;88.10;;;;;;5010101;28;20556;-75
2022/05/29 12:52:16;;;;;;;1.50;1.10;;;17.30;87.90;;;;;;5011186;28;20409;-75
2022/05/29 12:55:16;;;;;;;2.50;1.60;;;17.20;85.30;;;;;;4995154;28;20437;-75
2022/05/29 12:58:09;;;;;;;3.83;1.80;;;17.10;83.60;;;;;;4995254;28;20453;-75
2022/05/29 13:00:48;;;;;;;15.83;3.23;;;16.80;86.50;;;;;;4996186;28;20472;-75
2022/05/29 13:03:28;;;;;;;13.13;5.57;;;16.70;88.00;;;;;;5011550;28;20477;-75
2022/05/29 13:06:04;;;;;;;10.40;3.60;;;16.70;88.30;;;;;;5011790;28;20549;-75
2022/05/29 13:09:10;;;;;;;3.53;1.40;;;16.60;86.40;;;;;;4995443;28;20483;-74
2022/05/29 13:11:39;;;;;;;5.13;1.23;;;16.60;87.30;;;;;;4992513;28;20492;-71
2022/05/29 13:14:10;;;;;;;6.23;1.97;;;16.60;89.20;;;;;;4993206;28;20396;-72
2022/05/29 13:16:43;;;;;;;4.40;1.80;;;16.60;89.30;;;;;;4993158;28;20412;-71
2022/05/29 13:19:26;;;;;;;4.27;1.57;;;16.60;88.40;;;;;;5008142;28;20412;-71
2022/05/29 13:22:06;;;;;;;6.27;2.60;;;16.60;90.40;;;;;;5002670;28;20514;-71
2022/05/29 13:24:39;;;;;;;4.03;2.30;;;16.40;92.50;;;;;;5014974;28;20402;-73
2022/05/29 13:27:17;;;;;;;10.97;2.63;;;16.20;93.90;;;;;;4997797;28;20837;-72
2022/05/29 13:29:51;;;;;;;11.20;2.27;;;16.10;95.60;;;;;;4998442;28;20572;-73
2022/05/29 13:32:29;;;;;;;7.83;2.63;;;16.00;97.40;;;;;;5016265;28;20500;-72
2022/05/29 13:35:04;;;;;;;5.53;2.30;;;16.00;98.50;;;;;;5015102;28;20460;-72
2022/05/29 13:37:39;;;;;;;10.57;9.07;;;16.00;99.30;;;;;;5015976;28;20460;-72
2022/05/29 13:40:30;;;;;;;9.17;7.20;;;16.00;99.70;;;;;;5015015;28;20462;-72
2022/05/29 13:43:19;;;;;;;16.13;14.50;;;15.90;99.40;;;;;;5014508;28;20449;-72
2022/05/29 13:45:45;;;;;;;15.67;14.27;;;16.00;99.90;;;;;;4998449;28;20436;-73
2022/05/29 13:48:11;;;;;;;6.30;5.40;;;16.10;99.90;;;;;;5014844;28;20941;-72
2022/05/29 13:50:40;;;;;;;6.90;3.93;;;16.20;99.90;;;;;;5015699;28;20448;-73
2022/05/29 13:53:20;;;;;;;3.33;2.17;;;16.30;99.90;;;;;;5014507;28;20746;-72
2022/05/29 13:56:04;;;;;;;3.83;2.90;;;16.40;99.90;;;;;;5015668;28;20408;-72
2022/05/29 14:05:00;;;;;;;3.40;1.50;;;16.60;98.20;;;;;;5014395;28;20442;-72